sensor_id;sensor_type;location;lat;lon;timestamp;pressure;altitude;pressure_sealevel;temperature;humidity
77574;BME280;66710;48.868;9.080;2024-03-06T00:00:15;98066.75;;;4.73;83.87
77574;BME280;66710;48.868;9.080;2024-03-06T00:02:40;98068.38;;;4.67;83.44
77574;BME280;66710;48.868;9.080;2024-03-06T00:05:06;98071.84;;;4.61;84.72
77574;BME280;66710;48.868;9.080;2024-03-06T00:07:33;98067.97;;;4.57;84.95
77574;BME280;66710;48.868;9.080;2024-03-06T00:09:58;98071.81;;;4.54;84.68
77574;BME280;66710;48.868;9.080;2024-03-06T00:12:23;98063.44;;;4.51;84.67
77574;BME280;66710;48.868;9.080;2024-03-06T00:14:49;98069.97;;;4.55;84.99
77574;BME280;66710;48.868;9.080;2024-03-06T00:17:14;98066.72;;;4.53;85.20
77574;BME280;66710;48.868;9.080;2024-03-06T00:19:40;98070.63;;;4.57;84.83
77574;BME280;66710;48.868;9.080;2024-03-06T00:22:05;98066.91;;;4.51;85.24
77574;BME280;66710;48.868;9.080;2024-03-06T00:24:31;98071.66;;;4.56;84.90
77574;BME280;66710;48.868;9.080;2024-03-06T00:26:57;98072.03;;;4.53;85.86
77574;BME280;66710;48.868;9.080;2024-03-06T00:29:23;98074.47;;;4.48;85.53
77574;BME280;66710;48.868;9.080;2024-03-06T00:31:48;98074.06;;;4.51;85.41
77574;BME280;66710;48.868;9.080;2024-03-06T00:34:14;98076.53;;;4.52;85.88
77574;BME280;66710;48.868;9.080;2024-03-06T00:36:40;98070.78;;;4.49;85.36
77574;BME280;66710;48.868;9.080;2024-03-06T00:39:06;98080.59;;;4.48;86.08
77574;BME280;66710;48.868;9.080;2024-03-06T00:41:33;98078.75;;;4.49;85.67
77574;BME280;66710;48.868;9.080;2024-03-06T00:43:59;98083.09;;;4.50;85.44
77574;BME280;66710;48.868;9.080;2024-03-06T00:46:25;98075.09;;;4.50;85.85
77574;BME280;66710;48.868;9.080;2024-03-06T00:48:50;98078.59;;;4.50;85.72
77574;BME280;66710;48.868;9.080;2024-03-06T00:51:15;98070.41;;;4.52;85.97
77574;BME280;66710;48.868;9.080;2024-03-06T00:53:41;98067.13;;;4.50;86.25
77574;BME280;66710;48.868;9.080;2024-03-06T00:56:07;98063.03;;;4.54;85.79
77574;BME280;66710;48.868;9.080;2024-03-06T00:58:32;98061.63;;;4.58;86.45
77574;BME280;66710;48.868;9.080;2024-03-06T01:00:58;98067.38;;;4.68;85.49
77574;BME280;66710;48.868;9.080;2024-03-06T01:03:24;98066.16;;;4.71;85.79
77574;BME280;66710;48.868;9.080;2024-03-06T01:05:49;98063.06;;;4.67;85.98
77574;BME280;66710;48.868;9.080;2024-03-06T01:08:17;98067.16;;;4.63;86.21
77574;BME280;66710;48.868;9.080;2024-03-06T01:10:43;98076.56;;;4.59;86.67
77574;BME280;66710;48.868;9.080;2024-03-06T01:13:08;98070.22;;;4.60;86.70
77574;BME280;66710;48.868;9.080;2024-03-06T01:15:36;98085.13;;;4.61;86.13
77574;BME280;66710;48.868;9.080;2024-03-06T01:18:01;98078.03;;;4.68;85.85
77574;BME280;66710;48.868;9.080;2024-03-06T01:20:28;98076.19;;;4.69;86.43
77574;BME280;66710;48.868;9.080;2024-03-06T01:22:53;98076.34;;;4.67;86.82
77574;BME280;66710;48.868;9.080;2024-03-06T01:25:19;98073.69;;;4.67;86.74
77574;BME280;66710;48.868;9.080;2024-03-06T01:27:44;98077.38;;;4.60;86.09
77574;BME280;66710;48.868;9.080;2024-03-06T01:30:09;98083.16;;;4.76;85.99
77574;BME280;66710;48.868;9.080;2024-03-06T01:32:35;98078.84;;;4.69;86.20
77574;BME280;66710;48.868;9.080;2024-03-06T01:35:00;98085.00;;;4.76;86.40
77574;BME280;66710;48.868;9.080;2024-03-06T01:37:26;98084.78;;;4.77;85.97
77574;BME280;66710;48.868;9.080;2024-03-06T01:39:51;98083.53;;;4.73;86.01
77574;BME280;66710;48.868;9.080;2024-03-06T01:42:17;98087.88;;;4.74;86.34
77574;BME280;66710;48.868;9.080;2024-03-06T01:44:43;98076.34;;;4.67;86.25
77574;BME280;66710;48.868;9.080;2024-03-06T01:47:08;98076.97;;;4.63;86.96
77574;BME280;66710;48.868;9.080;2024-03-06T01:49:34;98068.78;;;4.57;87.27
77574;BME280;66710;48.868;9.080;2024-03-06T01:52:00;98064.66;;;4.55;87.35
77574;BME280;66710;48.868;9.080;2024-03-06T01:54:26;98071.81;;;4.54;87.67
77574;BME280;66710;48.868;9.080;2024-03-06T01:56:52;98075.91;;;4.50;87.11
77574;BME280;66710;48.868;9.080;2024-03-06T01:59:21;98077.75;;;4.50;87.44
77574;BME280;66710;48.868;9.080;2024-03-06T02:01:52;98073.44;;;4.49;87.81
77574;BME280;66710;48.868;9.080;2024-03-06T02:04:18;98091.25;;;4.55;87.11
77574;BME280;66710;48.868;9.080;2024-03-06T02:06:44;98091.25;;;4.55;87.58
77574;BME280;66710;48.868;9.080;2024-03-06T02:09:10;98098.41;;;4.54;87.33
77574;BME280;66710;48.868;9.080;2024-03-06T02:11:37;98088.00;;;4.53;87.52
77574;BME280;66710;48.868;9.080;2024-03-06T02:14:02;98089.22;;;4.50;87.75
77574;BME280;66710;48.868;9.080;2024-03-06T02:16:28;98099.03;;;4.50;87.97
77574;BME280;66710;48.868;9.080;2024-03-06T02:18:55;98100.84;;;4.49;88.77
77574;BME280;66710;48.868;9.080;2024-03-06T02:21:23;98101.28;;;4.46;88.23
77574;BME280;66710;48.868;9.080;2024-03-06T02:23:49;98097.19;;;4.44;88.84
77574;BME280;66710;48.868;9.080;2024-03-06T02:26:18;98100.81;;;4.43;88.24
77574;BME280;66710;48.868;9.080;2024-03-06T02:28:48;98091.63;;;4.39;88.98
77574;BME280;66710;48.868;9.080;2024-03-06T02:31:14;98102.06;;;4.40;88.64
77574;BME280;66710;48.868;9.080;2024-03-06T02:33:40;98090.38;;;4.35;88.93
77574;BME280;66710;48.868;9.080;2024-03-06T02:36:05;98097.75;;;4.33;88.20
77574;BME280;66710;48.868;9.080;2024-03-06T02:38:31;98098.56;;;4.33;88.59
77574;BME280;66710;48.868;9.080;2024-03-06T02:40:56;98101.38;;;4.32;89.23
77574;BME280;66710;48.868;9.080;2024-03-06T02:43:22;98099.75;;;4.30;88.39
77574;BME280;66710;48.868;9.080;2024-03-06T02:45:47;98101.38;;;4.32;89.13
77574;BME280;66710;48.868;9.080;2024-03-06T02:48:12;98094.44;;;4.30;89.34
77574;BME280;66710;48.868;9.080;2024-03-06T02:50:38;98091.16;;;4.28;89.51
77574;BME280;66710;48.868;9.080;2024-03-06T02:53:03;98097.75;;;4.33;89.56
77574;BME280;66710;48.868;9.080;2024-03-06T02:55:29;98099.38;;;4.34;89.44
77574;BME280;66710;48.868;9.080;2024-03-06T02:57:55;98096.06;;;4.32;89.12
77574;BME280;66710;48.868;9.080;2024-03-06T03:00:20;98099.56;;;4.32;89.62
77574;BME280;66710;48.868;9.080;2024-03-06T03:02:47;98099.75;;;4.30;89.27
77574;BME280;66710;48.868;9.080;2024-03-06T03:05:12;98102.41;;;4.30;89.45
77574;BME280;66710;48.868;9.080;2024-03-06T03:07:38;98100.41;;;4.33;89.38
77574;BME280;66710;48.868;9.080;2024-03-06T03:10:03;98091.75;;;4.24;89.45
77574;BME280;66710;48.868;9.080;2024-03-06T03:12:29;98096.47;;;4.28;89.74
77574;BME280;66710;48.868;9.080;2024-03-06T03:14:55;98103.03;;;4.26;89.41
77574;BME280;66710;48.868;9.080;2024-03-06T03:17:20;98105.84;;;4.24;90.10
77574;BME280;66710;48.868;9.080;2024-03-06T03:19:46;98099.13;;;4.22;89.93
77574;BME280;66710;48.868;9.080;2024-03-06T03:22:11;98095.19;;;4.18;90.22
77574;BME280;66710;48.868;9.080;2024-03-06T03:24:37;98089.47;;;4.14;90.22
77574;BME280;66710;48.868;9.080;2024-03-06T03:27:02;98090.69;;;4.18;90.17
77574;BME280;66710;48.868;9.080;2024-03-06T03:29:28;98101.97;;;4.20;90.42
77574;BME280;66710;48.868;9.080;2024-03-06T03:31:54;98105.03;;;4.24;89.62
77574;BME280;66710;48.868;9.080;2024-03-06T03:34:20;98105.06;;;4.30;89.26
77574;BME280;66710;48.868;9.080;2024-03-06T03:36:46;98106.31;;;4.28;89.93
77574;BME280;66710;48.868;9.080;2024-03-06T03:39:12;98105.84;;;4.24;89.87
77574;BME280;66710;48.868;9.080;2024-03-06T03:41:44;98109.78;;;4.28;90.38
77574;BME280;66710;48.868;9.080;2024-03-06T03:44:12;98105.84;;;4.24;89.94
77574;BME280;66710;48.868;9.080;2024-03-06T03:46:37;98109.53;;;4.23;90.50
77574;BME280;66710;48.868;9.080;2024-03-06T03:49:03;98107.09;;;4.22;90.13
77574;BME280;66710;48.868;9.080;2024-03-06T03:51:28;98109.53;;;4.23;90.33
77574;BME280;66710;48.868;9.080;2024-03-06T03:53:54;98116.50;;;4.24;89.87
77574;BME280;66710;48.868;9.080;2024-03-06T03:56:19;98118.38;;;4.30;90.49
77574;BME280;66710;48.868;9.080;2024-03-06T03:58:44;98127.78;;;4.26;90.67
77574;BME280;66710;48.868;9.080;2024-03-06T04:01:11;98122.22;;;4.21;90.64
77574;BME280;66710;48.868;9.080;2024-03-06T04:03:36;98130.81;;;4.23;90.36
77574;BME280;66710;48.868;9.080;2024-03-06T04:06:02;98135.09;;;4.24;90.16
77574;BME280;66710;48.868;9.080;2024-03-06T04:08:27;98140.88;;;4.28;90.75
77574;BME280;66710;48.868;9.080;2024-03-06T04:10:53;98135.34;;;4.29;90.45
77574;BME280;66710;48.868;9.080;2024-03-06T04:13:18;98131.66;;;4.30;90.30
77574;BME280;66710;48.868;9.080;2024-03-06T04:15:45;98132.94;;;4.35;90.29
77574;BME280;66710;48.868;9.080;2024-03-06T04:18:11;98128.41;;;4.35;90.29
77574;BME280;66710;48.868;9.080;2024-03-06T04:20:36;98137.63;;;4.33;90.67
77574;BME280;66710;48.868;9.080;2024-03-06T04:23:02;98130.03;;;4.29;90.79
77574;BME280;66710;48.868;9.080;2024-03-06T04:25:27;98138.63;;;4.32;90.42
77574;BME280;66710;48.868;9.080;2024-03-06T04:27:53;98136.59;;;4.34;90.57
77574;BME280;66710;48.868;9.080;2024-03-06T04:30:18;98138.69;;;4.38;90.69
77574;BME280;66710;48.868;9.080;2024-03-06T04:32:44;98137.06;;;4.44;89.62
77574;BME280;66710;48.868;9.080;2024-03-06T04:35:10;98136.63;;;4.40;90.07
77574;BME280;66710;48.868;9.080;2024-03-06T04:37:35;98139.06;;;4.35;90.34
77574;BME280;66710;48.868;9.080;2024-03-06T04:40:01;98152.56;;;4.34;90.52
77574;BME280;66710;48.868;9.080;2024-03-06T04:42:28;98152.72;;;5.28;93.84
77574;BME280;66710;48.868;9.080;2024-03-06T04:44:53;98138.06;;;4.91;88.34
77574;BME280;66710;48.868;9.080;2024-03-06T04:47:18;98159.44;;;4.56;90.15
77574;BME280;66710;48.868;9.080;2024-03-06T04:49:44;98153.41;;;4.41;90.68
77574;BME280;66710;48.868;9.080;2024-03-06T04:52:10;98158.72;;;4.41;90.12
77574;BME280;66710;48.868;9.080;2024-03-06T04:54:35;98160.56;;;4.40;90.57
77574;BME280;66710;48.868;9.080;2024-03-06T04:57:00;98158.72;;;4.41;90.93
77574;BME280;66710;48.868;9.080;2024-03-06T04:59:26;98169.75;;;4.38;90.85
77574;BME280;66710;48.868;9.080;2024-03-06T05:01:52;98168.94;;;4.37;90.85
77574;BME280;66710;48.868;9.080;2024-03-06T05:04:17;98169.13;;;4.36;90.63
77574;BME280;66710;48.868;9.080;2024-03-06T05:06:43;98174.66;;;4.34;90.82
77574;BME280;66710;48.868;9.080;2024-03-06T05:09:08;98174.25;;;4.37;90.38
77574;BME280;66710;48.868;9.080;2024-03-06T05:11:37;98180.22;;;4.39;91.00
77574;BME280;66710;48.868;9.080;2024-03-06T05:14:03;98182.06;;;4.39;90.47
77574;BME280;66710;48.868;9.080;2024-03-06T05:16:29;98184.88;;;4.37;90.42
77574;BME280;66710;48.868;9.080;2024-03-06T05:18:54;98177.72;;;4.38;90.01
77574;BME280;66710;48.868;9.080;2024-03-06T05:21:20;98186.16;;;4.41;90.99
77574;BME280;66710;48.868;9.080;2024-03-06T05:23:48;98186.59;;;4.45;90.63
77574;BME280;66710;48.868;9.080;2024-03-06T05:26:13;98200.50;;;4.47;90.51
77574;BME280;66710;48.868;9.080;2024-03-06T05:28:39;98194.41;;;4.53;90.49
77574;BME280;66710;48.868;9.080;2024-03-06T05:31:18;98200.53;;;4.53;90.10
77574;BME280;66710;48.868;9.080;2024-03-06T05:33:45;98200.53;;;4.53;90.76
77574;BME280;66710;48.868;9.080;2024-03-06T05:36:11;98202.59;;;4.51;90.15
77574;BME280;66710;48.868;9.080;2024-03-06T05:38:38;98199.72;;;4.53;90.13
77574;BME280;66710;48.868;9.080;2024-03-06T05:41:04;98201.94;;;4.49;90.63
77574;BME280;66710;48.868;9.080;2024-03-06T05:43:29;98208.50;;;4.47;91.04
77574;BME280;66710;48.868;9.080;2024-03-06T05:45:54;98206.22;;;4.44;91.97
77574;BME280;66710;48.868;9.080;2024-03-06T05:48:20;98201.78;;;4.51;90.16
77574;BME280;66710;48.868;9.080;2024-03-06T05:50:45;98209.31;;;4.47;91.13
77574;BME280;66710;48.868;9.080;2024-03-06T05:53:10;98209.06;;;4.42;91.40
77574;BME280;66710;48.868;9.080;2024-03-06T05:55:36;98211.34;;;4.45;90.90
77574;BME280;66710;48.868;9.080;2024-03-06T05:58:02;98210.91;;;4.42;91.52
77574;BME280;66710;48.868;9.080;2024-03-06T06:00:27;98217.50;;;4.46;91.45
77574;BME280;66710;48.868;9.080;2024-03-06T06:02:55;98220.16;;;4.46;91.75
77574;BME280;66710;48.868;9.080;2024-03-06T06:05:21;98224.00;;;4.43;92.04
77574;BME280;66710;48.868;9.080;2024-03-06T06:07:48;98215.22;;;4.43;91.65
77574;BME280;66710;48.868;9.080;2024-03-06T06:10:14;98220.53;;;4.43;92.22
77574;BME280;66710;48.868;9.080;2024-03-06T06:12:39;98219.72;;;4.42;92.49
77574;BME280;66710;48.868;9.080;2024-03-06T06:15:06;98231.38;;;4.41;92.30
77574;BME280;66710;48.868;9.080;2024-03-06T06:17:33;98233.81;;;4.43;92.81
77574;BME280;66710;48.868;9.080;2024-03-06T06:19:59;98231.38;;;4.41;92.71
77574;BME280;66710;48.868;9.080;2024-03-06T06:22:27;98246.75;;;4.46;92.47
77574;BME280;66710;48.868;9.080;2024-03-06T06:24:52;98243.47;;;4.44;92.00
77574;BME280;66710;48.868;9.080;2024-03-06T06:27:18;98247.38;;;4.48;92.48
77574;BME280;66710;48.868;9.080;2024-03-06T06:29:43;98259.03;;;4.47;92.36
77574;BME280;66710;48.868;9.080;2024-03-06T06:32:08;98255.09;;;4.43;92.57
77574;BME280;66710;48.868;9.080;2024-03-06T06:34:34;98259.44;;;4.44;92.15
77574;BME280;66710;48.868;9.080;2024-03-06T06:36:59;98268.22;;;4.44;92.70
77574;BME280;66710;48.868;9.080;2024-03-06T06:39:24;98254.72;;;4.46;92.35
77574;BME280;66710;48.868;9.080;2024-03-06T06:41:50;98261.31;;;4.50;92.04
77574;BME280;66710;48.868;9.080;2024-03-06T06:44:15;98263.31;;;4.48;92.24
77574;BME280;66710;48.868;9.080;2024-03-06T06:46:40;98267.63;;;4.49;92.05
77574;BME280;66710;48.868;9.080;2024-03-06T06:49:06;98271.75;;;4.51;92.70
77574;BME280;66710;48.868;9.080;2024-03-06T06:51:31;98269.72;;;4.53;91.76
77574;BME280;66710;48.868;9.080;2024-03-06T06:53:56;98275.66;;;4.55;92.43
77574;BME280;66710;48.868;9.080;2024-03-06T06:56:22;98286.69;;;4.52;92.50
77574;BME280;66710;48.868;9.080;2024-03-06T06:58:49;98280.81;;;4.57;93.07
77574;BME280;66710;48.868;9.080;2024-03-06T07:01:15;98275.47;;;4.57;92.64
77574;BME280;66710;48.868;9.080;2024-03-06T07:03:42;98274.88;;;4.62;92.57
77574;BME280;66710;48.868;9.080;2024-03-06T07:06:07;98284.69;;;4.61;92.84
77574;BME280;66710;48.868;9.080;2024-03-06T07:08:33;98276.75;;;4.68;92.98
77574;BME280;66710;48.868;9.080;2024-03-06T07:10:58;98275.56;;;4.70;92.73
77574;BME280;66710;48.868;9.080;2024-03-06T07:13:24;98284.53;;;4.63;92.21
77574;BME280;66710;48.868;9.080;2024-03-06T07:15:49;98290.66;;;4.63;92.63
77574;BME280;66710;48.868;9.080;2024-03-06T07:18:14;98284.91;;;4.60;92.91
77574;BME280;66710;48.868;9.080;2024-03-06T07:20:40;98284.69;;;4.61;92.62
77574;BME280;66710;48.868;9.080;2024-03-06T07:23:06;98284.53;;;4.63;92.72
77574;BME280;66710;48.868;9.080;2024-03-06T07:25:31;98299.06;;;4.67;93.63
77574;BME280;66710;48.868;9.080;2024-03-06T07:27:57;98294.75;;;4.66;92.67
77574;BME280;66710;48.868;9.080;2024-03-06T07:30:22;98284.72;;;4.68;93.31
77574;BME280;66710;48.868;9.080;2024-03-06T07:32:48;98292.53;;;4.69;93.08
77574;BME280;66710;48.868;9.080;2024-03-06T07:35:14;98297.66;;;4.71;92.06
77574;BME280;66710;48.868;9.080;2024-03-06T07:37:40;98298.44;;;4.65;92.96
77574;BME280;66710;48.868;9.080;2024-03-06T07:40:06;98300.31;;;4.71;92.65
77574;BME280;66710;48.868;9.080;2024-03-06T07:42:32;98304.41;;;4.73;92.26
77574;BME280;66710;48.868;9.080;2024-03-06T07:44:58;98300.13;;;4.72;91.95
77574;BME280;66710;48.868;9.080;2024-03-06T07:47:24;98304.03;;;4.76;92.83
77574;BME280;66710;48.868;9.080;2024-03-06T07:49:49;98304.66;;;4.78;92.44
77574;BME280;66710;48.868;9.080;2024-03-06T07:52:15;98310.84;;;4.86;92.80
77574;BME280;66710;48.868;9.080;2024-03-06T07:54:43;98314.38;;;4.93;92.55
77574;BME280;66710;48.868;9.080;2024-03-06T07:57:09;98315.00;;;4.95;92.07
77574;BME280;66710;48.868;9.080;2024-03-06T07:59:35;98314.19;;;4.94;92.86
77574;BME280;66710;48.868;9.080;2024-03-06T08:02:00;98311.13;;;4.97;92.80
77574;BME280;66710;48.868;9.080;2024-03-06T08:04:26;98322.84;;;5.09;92.80
77574;BME280;66710;48.868;9.080;2024-03-06T08:06:52;98320.63;;;5.13;92.77
77574;BME280;66710;48.868;9.080;2024-03-06T08:09:17;98328.19;;;5.09;93.15
77574;BME280;66710;48.868;9.080;2024-03-06T08:11:44;98324.09;;;5.07;93.34
77574;BME280;66710;48.868;9.080;2024-03-06T08:14:10;98326.13;;;5.05;92.79
77574;BME280;66710;48.868;9.080;2024-03-06T08:16:35;98337.16;;;5.02;93.00
77574;BME280;66710;48.868;9.080;2024-03-06T08:19:02;98333.44;;;4.96;93.04
77574;BME280;66710;48.868;9.080;2024-03-06T08:21:28;98333.47;;;5.03;93.43
77574;BME280;66710;48.868;9.080;2024-03-06T08:23:53;98336.13;;;5.03;92.81
77574;BME280;66710;48.868;9.080;2024-03-06T08:26:19;98334.56;;;5.15;93.61
77574;BME280;66710;48.868;9.080;2024-03-06T08:28:44;98338.69;;;5.18;93.18
77574;BME280;66710;48.868;9.080;2024-03-06T08:31:10;98338.50;;;5.19;93.24
77574;BME280;66710;48.868;9.080;2024-03-06T08:33:35;98346.25;;;5.14;93.08
77574;BME280;66710;48.868;9.080;2024-03-06T08:36:01;98338.38;;;4.99;92.91
77574;BME280;66710;48.868;9.080;2024-03-06T08:38:27;98340.69;;;5.09;93.36
77574;BME280;66710;48.868;9.080;2024-03-06T08:40:52;98344.88;;;5.25;92.95
77574;BME280;66710;48.868;9.080;2024-03-06T08:43:18;98348.09;;;5.14;93.04
77574;BME280;66710;48.868;9.080;2024-03-06T08:45:44;98348.34;;;5.25;92.91
77574;BME280;66710;48.868;9.080;2024-03-06T08:48:10;98358.41;;;5.30;93.51
77574;BME280;66710;48.868;9.080;2024-03-06T08:50:36;98352.41;;;5.21;93.14
77574;BME280;66710;48.868;9.080;2024-03-06T08:53:02;98344.84;;;5.18;92.77
77574;BME280;66710;48.868;9.080;2024-03-06T08:55:27;98352.41;;;5.21;92.89
77574;BME280;66710;48.868;9.080;2024-03-06T08:57:53;98357.97;;;5.26;92.86
77574;BME280;66710;48.868;9.080;2024-03-06T09:00:19;98357.63;;;5.36;92.94
77574;BME280;66710;48.868;9.080;2024-03-06T09:02:44;98361.34;;;5.42;92.22
77574;BME280;66710;48.868;9.080;2024-03-06T09:05:11;98347.78;;;5.30;92.96
77574;BME280;66710;48.868;9.080;2024-03-06T09:07:38;98351.00;;;5.25;92.18
77574;BME280;66710;48.868;9.080;2024-03-06T09:10:06;98370.69;;;5.24;92.61
77574;BME280;66710;48.868;9.080;2024-03-06T09:12:32;98368.41;;;5.21;91.91
77574;BME280;66710;48.868;9.080;2024-03-06T09:14:57;98367.53;;;5.14;92.42
77574;BME280;66710;48.868;9.080;2024-03-06T09:17:22;98371.63;;;5.10;92.74
77574;BME280;66710;48.868;9.080;2024-03-06T09:19:48;98368.81;;;5.18;93.22
77574;BME280;66710;48.868;9.080;2024-03-06T09:22:13;98375.78;;;5.19;92.09
77574;BME280;66710;48.868;9.080;2024-03-06T09:24:39;98365.72;;;5.21;93.12
77574;BME280;66710;48.868;9.080;2024-03-06T09:27:04;98364.75;;;5.22;92.94
77574;BME280;66710;48.868;9.080;2024-03-06T09:29:30;98370.09;;;5.29;92.92
77574;BME280;66710;48.868;9.080;2024-03-06T09:31:55;98371.53;;;5.31;92.77
77574;BME280;66710;48.868;9.080;2024-03-06T09:34:21;98366.00;;;5.33;92.74
77574;BME280;66710;48.868;9.080;2024-03-06T09:36:48;98382.41;;;5.30;92.20
77574;BME280;66710;48.868;9.080;2024-03-06T09:39:15;98379.94;;;5.28;92.17
77574;BME280;66710;48.868;9.080;2024-03-06T09:41:46;98388.53;;;5.30;93.02
77574;BME280;66710;48.868;9.080;2024-03-06T09:44:13;98387.31;;;5.33;92.38
77574;BME280;66710;48.868;9.080;2024-03-06T09:46:42;98379.16;;;5.34;92.53
77574;BME280;66710;48.868;9.080;2024-03-06T09:49:08;98377.28;;;5.28;92.83
77574;BME280;66710;48.868;9.080;2024-03-06T09:51:35;98388.97;;;5.34;92.58
77574;BME280;66710;48.868;9.080;2024-03-06T09:54:01;98385.94;;;5.44;92.67
77574;BME280;66710;48.868;9.080;2024-03-06T09:56:27;98384.06;;;5.37;92.72
77574;BME280;66710;48.868;9.080;2024-03-06T09:58:53;98387.75;;;5.36;91.86
77574;BME280;66710;48.868;9.080;2024-03-06T10:01:19;98397.97;;;5.33;92.27
77574;BME280;66710;48.868;9.080;2024-03-06T10:03:44;98386.56;;;5.46;92.05
77574;BME280;66710;48.868;9.080;2024-03-06T10:06:11;98388.22;;;5.47;92.47
77574;BME280;66710;48.868;9.080;2024-03-06T10:08:36;98398.91;;;5.53;92.74
77574;BME280;66710;48.868;9.080;2024-03-06T10:11:03;98395.44;;;5.53;91.94
77574;BME280;66710;48.868;9.080;2024-03-06T10:13:28;98395.66;;;5.58;92.30
77574;BME280;66710;48.868;9.080;2024-03-06T10:18:26;98389.06;;;5.54;91.59
77574;BME280;66710;48.868;9.080;2024-03-06T10:20:52;98385.63;;;5.67;92.10
77574;BME280;66710;48.868;9.080;2024-03-06T10:23:18;98398.91;;;5.53;92.32
77574;BME280;66710;48.868;9.080;2024-03-06T10:25:44;98392.59;;;5.61;92.41
77574;BME280;66710;48.868;9.080;2024-03-06T10:28:11;98390.94;;;5.60;92.29
77574;BME280;66710;48.868;9.080;2024-03-06T10:30:41;98392.81;;;5.66;92.95
77574;BME280;66710;48.868;9.080;2024-03-06T10:33:11;98397.69;;;5.56;92.77
77574;BME280;66710;48.868;9.080;2024-03-06T10:35:39;98390.97;;;5.67;92.68
77574;BME280;66710;48.868;9.080;2024-03-06T10:38:06;98396.91;;;5.69;92.86
77574;BME280;66710;48.868;9.080;2024-03-06T10:40:34;98387.06;;;5.62;92.31
77574;BME280;66710;48.868;9.080;2024-03-06T10:43:00;98397.34;;;5.72;92.48
77574;BME280;66710;48.868;9.080;2024-03-06T10:45:40;98388.66;;;5.57;92.20
77574;BME280;66710;48.868;9.080;2024-03-06T10:48:09;98402.88;;;5.64;92.60
77574;BME280;66710;48.868;9.080;2024-03-06T10:50:41;98401.00;;;5.58;91.87
77574;BME280;66710;48.868;9.080;2024-03-06T10:53:11;98400.81;;;5.66;92.44
77574;BME280;66710;48.868;9.080;2024-03-06T10:55:38;98398.53;;;5.63;92.87
77574;BME280;66710;48.868;9.080;2024-03-06T10:58:08;98402.00;;;5.57;92.31
77574;BME280;66710;48.868;9.080;2024-03-06T11:00:38;98400.75;;;5.53;93.41
77574;BME280;66710;48.868;9.080;2024-03-06T11:03:08;98403.44;;;5.53;92.73
77574;BME280;66710;48.868;9.080;2024-03-06T11:05:37;98400.19;;;5.64;93.23
77574;BME280;66710;48.868;9.080;2024-03-06T11:08:09;98408.38;;;5.62;92.72
77574;BME280;66710;48.868;9.080;2024-03-06T11:10:36;98398.16;;;5.66;92.27
77574;BME280;66710;48.868;9.080;2024-03-06T11:13:03;98402.25;;;5.69;92.63
77574;BME280;66710;48.868;9.080;2024-03-06T11:15:30;98407.41;;;5.70;92.01
77574;BME280;66710;48.868;9.080;2024-03-06T11:17:56;98398.56;;;5.70;92.25
77574;BME280;66710;48.868;9.080;2024-03-06T11:20:21;98402.06;;;5.70;92.46
77574;BME280;66710;48.868;9.080;2024-03-06T11:28:11;98405.94;;;5.68;92.48
77574;BME280;66710;48.868;9.080;2024-03-06T11:30:48;98402.66;;;5.66;92.56
77574;BME280;66710;48.868;9.080;2024-03-06T11:33:20;98400.41;;;5.69;92.34
77574;BME280;66710;48.868;9.080;2024-03-06T11:36:23;98406.53;;;5.63;92.63
77574;BME280;66710;48.868;9.080;2024-03-06T11:38:59;98408.41;;;5.69;92.49
77574;BME280;66710;48.868;9.080;2024-03-06T11:41:26;98414.38;;;5.71;93.26
77574;BME280;66710;48.868;9.080;2024-03-06T11:43:53;98408.84;;;5.73;93.47
77574;BME280;66710;48.868;9.080;2024-03-06T11:46:21;98409.28;;;5.83;92.50
77574;BME280;66710;48.868;9.080;2024-03-06T11:48:54;98413.41;;;5.85;93.27
77574;BME280;66710;48.868;9.080;2024-03-06T11:51:21;98404.38;;;5.86;92.59
77574;BME280;66710;48.868;9.080;2024-03-06T11:53:50;98409.53;;;5.88;92.50
77574;BME280;66710;48.868;9.080;2024-03-06T11:56:15;98406.66;;;5.89;92.63
77574;BME280;66710;48.868;9.080;2024-03-06T11:58:40;98409.59;;;6.08;92.95
77574;BME280;66710;48.868;9.080;2024-03-06T12:01:06;98405.09;;;6.15;91.62
77574;BME280;66710;48.868;9.080;2024-03-06T12:03:31;98413.47;;;5.99;92.45
77574;BME280;66710;48.868;9.080;2024-03-06T12:05:58;98406.13;;;6.07;92.40
77574;BME280;66710;48.868;9.080;2024-03-06T12:08:24;98413.09;;;6.02;92.33
77574;BME280;66710;48.868;9.080;2024-03-06T12:10:49;98410.81;;;6.05;92.38
77574;BME280;66710;48.868;9.080;2024-03-06T12:13:15;98411.47;;;6.07;92.55
77574;BME280;66710;48.868;9.080;2024-03-06T12:15:43;98415.97;;;6.07;93.16
77574;BME280;66710;48.868;9.080;2024-03-06T12:18:09;98404.25;;;6.01;92.97
77574;BME280;66710;48.868;9.080;2024-03-06T12:20:35;98411.75;;;5.84;92.28
77574;BME280;66710;48.868;9.080;2024-03-06T12:23:01;98403.97;;;5.83;93.25
77574;BME280;66710;48.868;9.080;2024-03-06T12:25:26;98412.19;;;5.88;93.48
77574;BME280;66710;48.868;9.080;2024-03-06T12:27:54;98413.00;;;5.88;92.77
77574;BME280;66710;48.868;9.080;2024-03-06T12:30:20;98407.69;;;5.88;92.95
77574;BME280;66710;48.868;9.080;2024-03-06T12:33:02;98411.59;;;5.93;93.54
77574;BME280;66710;48.868;9.080;2024-03-06T12:35:31;98415.31;;;5.98;92.93
77574;BME280;66710;48.868;9.080;2024-03-06T12:37:57;98404.44;;;6.00;93.40
77574;BME280;66710;48.868;9.080;2024-03-06T12:40:22;98412.66;;;5.98;93.30
77574;BME280;66710;48.868;9.080;2024-03-06T12:42:48;98414.72;;;6.03;93.41
77574;BME280;66710;48.868;9.080;2024-03-06T12:45:15;98401.16;;;5.98;93.20
77574;BME280;66710;48.868;9.080;2024-03-06T12:47:42;98412.66;;;5.98;93.21
77574;BME280;66710;48.868;9.080;2024-03-06T12:50:09;98416.59;;;6.09;92.95
77574;BME280;66710;48.868;9.080;2024-03-06T12:52:36;98411.47;;;6.07;92.75
77574;BME280;66710;48.868;9.080;2024-03-06T12:55:01;98411.47;;;6.07;93.46
77574;BME280;66710;48.868;9.080;2024-03-06T12:57:26;98407.75;;;6.02;93.13
77574;BME280;66710;48.868;9.080;2024-03-06T12:59:55;98413.31;;;6.07;92.95
77574;BME280;66710;48.868;9.080;2024-03-06T13:02:20;98404.47;;;6.06;93.50
77574;BME280;66710;48.868;9.080;2024-03-06T13:04:45;98412.84;;;5.97;92.69
77574;BME280;66710;48.868;9.080;2024-03-06T13:07:11;98412.41;;;5.93;93.13
77574;BME280;66710;48.868;9.080;2024-03-06T13:09:36;98408.56;;;5.96;94.00
77574;BME280;66710;48.868;9.080;2024-03-06T13:12:01;98398.09;;;6.01;94.20